sensor_id;sensor_type;location;lat;lon;timestamp;pressure;altitude;pressure_sealevel;temperature;humidity
57763;BME280;43592;42.524;12.052;2023-06-04T00:01:57;96869.28;;;14.42;100.00
57763;BME280;43592;42.524;12.052;2023-06-04T00:04:22;96864.19;;;14.56;100.00
57763;BME280;43592;42.524;12.052;2023-06-04T00:06:48;96860.50;;;14.68;100.00
57763;BME280;43592;42.524;12.052;2023-06-04T00:09:14;96855.25;;;14.75;100.00
57763;BME280;43592;42.524;12.052;2023-06-04T00:11:40;96860.31;;;14.80;100.00
57763;BME280;43592;42.524;12.052;2023-06-04T00:14:05;96852.31;;;14.84;100.00
57763;BME280;43592;42.524;12.052;2023-06-04T00:16:30;96848.53;;;14.88;100.00
57763;BME280;43592;42.524;12.052;2023-06-04T00:18:56;96843.56;;;14.90;100.00
57763;BME280;43592;42.524;12.052;2023-06-04T00:21:22;96844.72;;;14.89;100.00
57763;BME280;43592;42.524;12.052;2023-06-04T00:23:47;96840.75;;;14.83;100.00
57763;BME280;43592;42.524;12.052;2023-06-04T00:26:13;96838.28;;;14.74;100.00
57763;BME280;43592;42.524;12.052;2023-06-04T00:28:38;96836.22;;;14.64;100.00
57763;BME280;43592;42.524;12.052;2023-06-04T00:31:04;96839.94;;;14.56;100.00
57763;BME280;43592;42.524;12.052;2023-06-04T00:33:30;96842.13;;;14.50;100.00
57763;BME280;43592;42.524;12.052;2023-06-04T00:35:56;96835.88;;;14.46;100.00
57763;BME280;43592;42.524;12.052;2023-06-04T00:38:21;96843.56;;;14.44;100.00
57763;BME280;43592;42.524;12.052;2023-06-04T00:40:47;96828.19;;;14.45;100.00
57763;BME280;43592;42.524;12.052;2023-06-04T00:43:12;96839.31;;;14.43;100.00
57763;BME280;43592;42.524;12.052;2023-06-04T00:45:39;96838.91;;;14.41;100.00
57763;BME280;43592;42.524;12.052;2023-06-04T00:48:05;96835.00;;;14.38;100.00
57763;BME280;43592;42.524;12.052;2023-06-04T00:50:31;96839.97;;;14.36;100.00
57763;BME280;43592;42.524;12.052;2023-06-04T00:52:58;96834.53;;;14.33;100.00
57763;BME280;43592;42.524;12.052;2023-06-04T00:55:23;96833.38;;;14.34;100.00
57763;BME280;43592;42.524;12.052;2023-06-04T00:57:50;96836.13;;;14.37;100.00
57763;BME280;43592;42.524;12.052;2023-06-04T01:00:15;96837.69;;;14.38;100.00
57763;BME280;43592;42.524;12.052;2023-06-04T01:02:41;96830.41;;;14.39;100.00
57763;BME280;43592;42.524;12.052;2023-06-04T01:05:18;96830.41;;;14.39;100.00
57763;BME280;43592;42.524;12.052;2023-06-04T01:07:46;96835.78;;;14.39;100.00
57763;BME280;43592;42.524;12.052;2023-06-04T01:10:13;96826.84;;;14.35;100.00
57763;BME280;43592;42.524;12.052;2023-06-04T01:12:39;96827.50;;;14.28;100.00
57763;BME280;43592;42.524;12.052;2023-06-04T01:15:05;96826.97;;;14.19;100.00
57763;BME280;43592;42.524;12.052;2023-06-04T01:17:38;96826.44;;;14.10;100.00
57763;BME280;43592;42.524;12.052;2023-06-04T01:20:14;96818.16;;;13.99;100.00
57763;BME280;43592;42.524;12.052;2023-06-04T01:22:48;96809.94;;;13.92;100.00
57763;BME280;43592;42.524;12.052;2023-06-04T01:25:54;96819.09;;;13.87;100.00
57763;BME280;43592;42.524;12.052;2023-06-04T01:28:14;96820.50;;;13.81;100.00
57763;BME280;43592;42.524;12.052;2023-06-04T01:30:42;96807.28;;;13.73;100.00
57763;BME280;43592;42.524;12.052;2023-06-04T01:33:11;96810.50;;;13.59;100.00
57763;BME280;43592;42.524;12.052;2023-06-04T01:35:37;96814.94;;;13.51;100.00
57763;BME280;43592;42.524;12.052;2023-06-04T01:38:02;96820.25;;;13.47;100.00
57763;BME280;43592;42.524;12.052;2023-06-04T01:40:28;96825.97;;;13.46;100.00
57763;BME280;43592;42.524;12.052;2023-06-04T01:42:54;96816.69;;;13.43;100.00
57763;BME280;43592;42.524;12.052;2023-06-04T01:45:21;96823.91;;;13.39;100.00
57763;BME280;43592;42.524;12.052;2023-06-04T01:47:46;96826.50;;;13.36;100.00
57763;BME280;43592;42.524;12.052;2023-06-04T01:50:12;96817.59;;;13.32;100.00
57763;BME280;43592;42.524;12.052;2023-06-04T01:52:38;96817.94;;;13.30;100.00
57763;BME280;43592;42.524;12.052;2023-06-04T01:55:04;96819.94;;;13.33;100.00
57763;BME280;43592;42.524;12.052;2023-06-04T01:57:33;96826.59;;;13.39;100.00
57763;BME280;43592;42.524;12.052;2023-06-04T02:00:00;96815.66;;;13.48;100.00
57763;BME280;43592;42.524;12.052;2023-06-04T02:02:26;96829.94;;;13.52;100.00
57763;BME280;43592;42.524;12.052;2023-06-04T02:04:51;96833.75;;;13.51;100.00
57763;BME280;43592;42.524;12.052;2023-06-04T02:07:18;96829.16;;;13.52;100.00
57763;BME280;43592;42.524;12.052;2023-06-04T02:09:46;96831.50;;;13.53;100.00
57763;BME280;43592;42.524;12.052;2023-06-04T02:12:11;96827.31;;;13.56;100.00
57763;BME280;43592;42.524;12.052;2023-06-04T02:14:37;96826.97;;;13.57;100.00
57763;BME280;43592;42.524;12.052;2023-06-04T02:17:03;96831.13;;;13.55;100.00
57763;BME280;43592;42.524;12.052;2023-06-04T02:19:29;96828.38;;;13.51;100.00
57763;BME280;43592;42.524;12.052;2023-06-04T02:21:58;96831.78;;;13.48;100.00
57763;BME280;43592;42.524;12.052;2023-06-04T02:24:24;96834.09;;;13.50;100.00
57763;BME280;43592;42.524;12.052;2023-06-04T02:26:49;96832.34;;;13.57;100.00
57763;BME280;43592;42.524;12.052;2023-06-04T02:29:15;96835.59;;;13.66;100.00
57763;BME280;43592;42.524;12.052;2023-06-04T02:31:40;96839.97;;;13.75;100.00
57763;BME280;43592;42.524;12.052;2023-06-04T02:34:06;96842.09;;;13.85;100.00
57763;BME280;43592;42.524;12.052;2023-06-04T02:36:31;96834.53;;;13.90;100.00
57763;BME280;43592;42.524;12.052;2023-06-04T02:38:57;96838.91;;;13.99;100.00
57763;BME280;43592;42.524;12.052;2023-06-04T02:41:23;96844.78;;;14.04;100.00
57763;BME280;43592;42.524;12.052;2023-06-04T02:43:48;96831.00;;;14.09;100.00
57763;BME280;43592;42.524;12.052;2023-06-04T02:46:13;96838.81;;;14.14;100.00
57763;BME280;43592;42.524;12.052;2023-06-04T02:48:39;96838.84;;;14.18;100.00
57763;BME280;43592;42.524;12.052;2023-06-04T02:51:05;96841.22;;;14.20;100.00
57763;BME280;43592;42.524;12.052;2023-06-04T02:53:30;96835.81;;;14.20;100.00
57763;BME280;43592;42.524;12.052;2023-06-04T02:55:56;96832.34;;;14.19;100.00
57763;BME280;43592;42.524;12.052;2023-06-04T02:58:21;96829.66;;;14.19;100.00
57763;BME280;43592;42.524;12.052;2023-06-04T03:00:52;96832.69;;;14.18;100.00
57763;BME280;43592;42.524;12.052;2023-06-04T03:03:17;96821.88;;;14.14;100.00
57763;BME280;43592;42.524;12.052;2023-06-04T03:05:43;96824.50;;;14.10;100.00
57763;BME280;43592;42.524;12.052;2023-06-04T03:08:09;96815.53;;;14.03;100.00
57763;BME280;43592;42.524;12.052;2023-06-04T03:10:34;96818.88;;;13.96;100.00
57763;BME280;43592;42.524;12.052;2023-06-04T03:13:00;96821.84;;;13.91;100.00
57763;BME280;43592;42.524;12.052;2023-06-04T03:15:25;96822.50;;;13.84;100.00
57763;BME280;43592;42.524;12.052;2023-06-04T03:17:51;96818.13;;;13.76;100.00
57763;BME280;43592;42.524;12.052;2023-06-04T03:20:17;96817.53;;;13.67;100.00
57763;BME280;43592;42.524;12.052;2023-06-04T03:22:43;96816.63;;;13.59;100.00
57763;BME280;43592;42.524;12.052;2023-06-04T03:25:09;96828.44;;;13.55;100.00
57763;BME280;43592;42.524;12.052;2023-06-04T03:27:34;96823.78;;;13.52;100.00
57763;BME280;43592;42.524;12.052;2023-06-04T03:30:01;96823.34;;;13.50;100.00
57763;BME280;43592;42.524;12.052;2023-06-04T03:32:27;96820.66;;;13.50;100.00
57763;BME280;43592;42.524;12.052;2023-06-04T03:34:52;96824.53;;;13.52;100.00
57763;BME280;43592;42.524;12.052;2023-06-04T03:37:18;96821.91;;;13.56;100.00
57763;BME280;43592;42.524;12.052;2023-06-04T03:39:43;96814.34;;;13.61;100.00
57763;BME280;43592;42.524;12.052;2023-06-04T03:42:09;96816.00;;;13.66;100.00
57763;BME280;43592;42.524;12.052;2023-06-04T03:44:34;96819.50;;;13.70;100.00
57763;BME280;43592;42.524;12.052;2023-06-04T03:47:00;96818.41;;;13.71;100.00
57763;BME280;43592;42.524;12.052;2023-06-04T03:49:25;96811.44;;;13.70;100.00
57763;BME280;43592;42.524;12.052;2023-06-04T03:51:51;96818.75;;;13.69;100.00
57763;BME280;43592;42.524;12.052;2023-06-04T03:54:16;96810.28;;;13.67;100.00
57763;BME280;43592;42.524;12.052;2023-06-04T03:56:43;96812.53;;;13.65;100.00
57763;BME280;43592;42.524;12.052;2023-06-04T03:59:08;96813.25;;;13.62;100.00
57763;BME280;43592;42.524;12.052;2023-06-04T04:01:33;96809.41;;;13.63;100.00
57763;BME280;43592;42.524;12.052;2023-06-04T04:03:59;96800.91;;;13.61;100.00
57763;BME280;43592;42.524;12.052;2023-06-04T04:06:25;96800.56;;;13.63;100.00
57763;BME280;43592;42.524;12.052;2023-06-04T04:08:50;96804.03;;;13.63;100.00
57763;BME280;43592;42.524;12.052;2023-06-04T04:11:16;96796.41;;;13.65;100.00
57763;BME280;43592;42.524;12.052;2023-06-04T04:13:42;96802.53;;;13.66;100.00
57763;BME280;43592;42.524;12.052;2023-06-04T04:16:08;96801.41;;;13.67;100.00
57763;BME280;43592;42.524;12.052;2023-06-04T04:18:33;96809.56;;;13.70;100.00
57763;BME280;43592;42.524;12.052;2023-06-04T04:21:00;96811.94;;;13.76;100.00
57763;BME280;43592;42.524;12.052;2023-06-04T04:23:25;96820.50;;;13.81;100.00
57763;BME280;43592;42.524;12.052;2023-06-04T04:25:52;96813.28;;;13.85;100.00
57763;BME280;43592;42.524;12.052;2023-06-04T04:28:19;96810.66;;;13.89;100.00
57763;BME280;43592;42.524;12.052;2023-06-04T04:30:45;96810.72;;;13.92;100.00
57763;BME280;43592;42.524;12.052;2023-06-04T04:33:12;96816.97;;;13.97;100.00
57763;BME280;43592;42.524;12.052;2023-06-04T04:35:44;96818.94;;;14.00;100.00
57763;BME280;43592;42.524;12.052;2023-06-04T04:38:10;96820.56;;;14.04;100.00
57763;BME280;43592;42.524;12.052;2023-06-04T04:40:36;96821.41;;;14.08;100.00
57763;BME280;43592;42.524;12.052;2023-06-04T04:43:02;96820.69;;;14.11;100.00
57763;BME280;43592;42.524;12.052;2023-06-04T04:45:27;96821.94;;;14.18;100.00
57763;BME280;43592;42.524;12.052;2023-06-04T04:47:53;96818.53;;;14.21;100.00
57763;BME280;43592;42.524;12.052;2023-06-04T04:50:18;96822.84;;;14.25;100.00
57763;BME280;43592;42.524;12.052;2023-06-04T04:52:44;96825.25;;;14.30;100.00
57763;BME280;43592;42.524;12.052;2023-06-04T04:55:09;96815.31;;;14.34;100.00
57763;BME280;43592;42.524;12.052;2023-06-04T04:57:37;96815.78;;;14.40;100.00
57763;BME280;43592;42.524;12.052;2023-06-04T05:00:03;96815.16;;;14.47;100.00
57763;BME280;43592;42.524;12.052;2023-06-04T05:02:34;96814.13;;;14.55;100.00
57763;BME280;43592;42.524;12.052;2023-06-04T05:05:01;96816.22;;;14.65;100.00
57763;BME280;43592;42.524;12.052;2023-06-04T05:07:26;96819.81;;;14.73;100.00
57763;BME280;43592;42.524;12.052;2023-06-04T05:09:52;96819.91;;;14.80;100.00
57763;BME280;43592;42.524;12.052;2023-06-04T05:12:17;96825.78;;;14.86;100.00
57763;BME280;43592;42.524;12.052;2023-06-04T05:14:43;96825.88;;;14.93;100.00
57763;BME280;43592;42.524;12.052;2023-06-04T05:17:09;96833.28;;;14.99;100.00
57763;BME280;43592;42.524;12.052;2023-06-04T05:19:36;96838.03;;;15.06;100.00
57763;BME280;43592;42.524;12.052;2023-06-04T05:22:02;96834.66;;;15.13;100.00
57763;BME280;43592;42.524;12.052;2023-06-04T05:24:28;96839.78;;;15.21;100.00
57763;BME280;43592;42.524;12.052;2023-06-04T05:26:54;96841.38;;;15.26;100.00
57763;BME280;43592;42.524;12.052;2023-06-04T05:29:20;96844.91;;;15.30;100.00
57763;BME280;43592;42.524;12.052;2023-06-04T05:31:46;96848.41;;;15.34;100.00
57763;BME280;43592;42.524;12.052;2023-06-04T05:34:11;96844.63;;;15.39;100.00
57763;BME280;43592;42.524;12.052;2023-06-04T05:36:41;96840.47;;;15.45;100.00
57763;BME280;43592;42.524;12.052;2023-06-04T05:39:06;96849.38;;;15.49;100.00
57763;BME280;43592;42.524;12.052;2023-06-04T05:41:32;96856.75;;;15.52;100.00
57763;BME280;43592;42.524;12.052;2023-06-04T05:43:57;96860.25;;;15.56;100.00
57763;BME280;43592;42.524;12.052;2023-06-04T05:46:23;96857.28;;;15.65;100.00
57763;BME280;43592;42.524;12.052;2023-06-04T05:48:48;96862.81;;;15.72;100.00
57763;BME280;43592;42.524;12.052;2023-06-04T05:51:14;96865.25;;;15.84;100.00
57763;BME280;43592;42.524;12.052;2023-06-04T05:53:39;96862.38;;;16.00;100.00
57763;BME280;43592;42.524;12.052;2023-06-04T05:56:05;96869.13;;;16.21;100.00
57763;BME280;43592;42.524;12.052;2023-06-04T05:58:32;96866.06;;;16.63;100.00
57763;BME280;43592;42.524;12.052;2023-06-04T06:00:58;96869.34;;;17.38;100.00
57763;BME280;43592;42.524;12.052;2023-06-04T06:03:23;96866.28;;;18.38;100.00
57763;BME280;43592;42.524;12.052;2023-06-04T06:05:49;96866.25;;;19.42;100.00
57763;BME280;43592;42.524;12.052;2023-06-04T06:08:14;96879.50;;;20.35;100.00
57763;BME280;43592;42.524;12.052;2023-06-04T06:10:40;96878.47;;;21.22;100.00
57763;BME280;43592;42.524;12.052;2023-06-04T06:13:05;96882.84;;;21.92;100.00
57763;BME280;43592;42.524;12.052;2023-06-04T06:15:31;96884.59;;;22.40;100.00
57763;BME280;43592;42.524;12.052;2023-06-04T06:17:56;96882.50;;;22.75;100.00
57763;BME280;43592;42.524;12.052;2023-06-04T06:20:22;96879.72;;;23.05;100.00
57763;BME280;43592;42.524;12.052;2023-06-04T06:22:47;96880.34;;;23.37;100.00
57763;BME280;43592;42.524;12.052;2023-06-04T06:25:13;96897.16;;;23.55;100.00
57763;BME280;43592;42.524;12.052;2023-06-04T06:27:41;96886.78;;;23.90;100.00
57763;BME280;43592;42.524;12.052;2023-06-04T06:30:06;96879.31;;;24.30;100.00
57763;BME280;43592;42.524;12.052;2023-06-04T06:32:32;96879.66;;;24.52;100.00
57763;BME280;43592;42.524;12.052;2023-06-04T06:34:58;96883.34;;;24.78;100.00
57763;BME280;43592;42.524;12.052;2023-06-04T06:37:23;96891.38;;;25.02;100.00
57763;BME280;43592;42.524;12.052;2023-06-04T06:39:49;96894.22;;;25.31;100.00
57763;BME280;43592;42.524;12.052;2023-06-04T06:42:14;96883.06;;;25.38;100.00
57763;BME280;43592;42.524;12.052;2023-06-04T06:44:43;96880.63;;;25.57;100.00
57763;BME280;43592;42.524;12.052;2023-06-04T06:47:09;96889.72;;;25.83;100.00
57763;BME280;43592;42.524;12.052;2023-06-04T06:49:35;96903.38;;;25.99;100.00
57763;BME280;43592;42.524;12.052;2023-06-04T06:52:01;96907.47;;;26.20;100.00
57763;BME280;43592;42.524;12.052;2023-06-04T06:54:26;96891.38;;;26.22;97.28
57763;BME280;43592;42.524;12.052;2023-06-04T06:56:52;96891.53;;;26.02;98.73
57763;BME280;43592;42.524;12.052;2023-06-04T06:59:18;96892.03;;;25.84;100.00
57763;BME280;43592;42.524;12.052;2023-06-04T07:01:43;96883.75;;;25.71;100.00
57763;BME280;43592;42.524;12.052;2023-06-04T07:04:09;96878.44;;;25.35;100.00
57763;BME280;43592;42.524;12.052;2023-06-04T07:06:34;96885.91;;;25.18;100.00
57763;BME280;43592;42.524;12.052;2023-06-04T07:09:01;96889.66;;;25.08;100.00
57763;BME280;43592;42.524;12.052;2023-06-04T07:11:28;96887.59;;;25.12;100.00
57763;BME280;43592;42.524;12.052;2023-06-04T07:13:53;96884.53;;;25.10;100.00
57763;BME280;43592;42.524;12.052;2023-06-04T07:16:19;96893.44;;;24.98;100.00
57763;BME280;43592;42.524;12.052;2023-06-04T07:18:47;96891.38;;;24.85;100.00
57763;BME280;43592;42.524;12.052;2023-06-04T07:21:13;96891.63;;;24.75;100.00
57763;BME280;43592;42.524;12.052;2023-06-04T07:23:38;96883.50;;;24.71;100.00
57763;BME280;43592;42.524;12.052;2023-06-04T07:26:04;96877.00;;;24.98;100.00
57763;BME280;43592;42.524;12.052;2023-06-04T07:28:29;96879.59;;;25.50;100.00
57763;BME280;43592;42.524;12.052;2023-06-04T07:30:55;96881.75;;;26.01;96.60
57763;BME280;43592;42.524;12.052;2023-06-04T07:33:21;96886.44;;;26.42;93.19
57763;BME280;43592;42.524;12.052;2023-06-04T07:35:47;96883.84;;;26.52;89.62
57763;BME280;43592;42.524;12.052;2023-06-04T07:38:12;96882.19;;;26.54;87.76
57763;BME280;43592;42.524;12.052;2023-06-04T07:40:38;96882.38;;;26.85;88.57
57763;BME280;43592;42.524;12.052;2023-06-04T07:43:03;96890.69;;;27.33;86.78
57763;BME280;43592;42.524;12.052;2023-06-04T07:45:29;96888.41;;;27.53;84.45
57763;BME280;43592;42.524;12.052;2023-06-04T07:47:56;96889.66;;;27.74;85.18
57763;BME280;43592;42.524;12.052;2023-06-04T07:50:21;96886.91;;;27.96;83.54
57763;BME280;43592;42.524;12.052;2023-06-04T07:52:47;96897.31;;;27.80;83.07
57763;BME280;43592;42.524;12.052;2023-06-04T07:55:12;96891.00;;;27.92;83.39
57763;BME280;43592;42.524;12.052;2023-06-04T07:57:38;96890.69;;;28.12;82.99
57763;BME280;43592;42.524;12.052;2023-06-04T08:00:03;96890.75;;;28.30;80.91
57763;BME280;43592;42.524;12.052;2023-06-04T08:02:30;96887.38;;;28.48;76.37
57763;BME280;43592;42.524;12.052;2023-06-04T08:04:55;96888.19;;;28.36;75.65
57763;BME280;43592;42.524;12.052;2023-06-04T08:07:21;96896.03;;;28.15;77.62
57763;BME280;43592;42.524;12.052;2023-06-04T08:09:47;96884.22;;;28.06;76.21
57763;BME280;43592;42.524;12.052;2023-06-04T08:12:12;96890.28;;;28.23;78.03
57763;BME280;43592;42.524;12.052;2023-06-04T08:14:38;96886.41;;;28.42;74.79
57763;BME280;43592;42.524;12.052;2023-06-04T08:17:03;96889.75;;;28.37;76.60
57763;BME280;43592;42.524;12.052;2023-06-04T08:19:29;96884.31;;;28.46;73.41
57763;BME280;43592;42.524;12.052;2023-06-04T08:21:54;96882.41;;;28.34;73.01
57763;BME280;43592;42.524;12.052;2023-06-04T08:24:21;96880.41;;;28.34;75.67
57763;BME280;43592;42.524;12.052;2023-06-04T08:26:46;96888.13;;;28.49;74.00
57763;BME280;43592;42.524;12.052;2023-06-04T08:29:12;96885.00;;;28.37;70.38
57763;BME280;43592;42.524;12.052;2023-06-04T08:31:38;96893.63;;;27.95;74.94
57763;BME280;43592;42.524;12.052;2023-06-04T08:34:05;96892.22;;;27.91;70.54
57763;BME280;43592;42.524;12.052;2023-06-04T08:36:30;96889.31;;;27.72;70.81
57763;BME280;43592;42.524;12.052;2023-06-04T08:38:58;96883.19;;;27.90;74.32
57763;BME280;43592;42.524;12.052;2023-06-04T08:41:30;96888.88;;;27.96;71.12
57763;BME280;43592;42.524;12.052;2023-06-04T08:43:58;96892.91;;;27.82;71.34
57763;BME280;43592;42.524;12.052;2023-06-04T08:46:27;96893.16;;;27.75;72.75
57763;BME280;43592;42.524;12.052;2023-06-04T08:48:54;96887.00;;;27.71;74.39
57763;BME280;43592;42.524;12.052;2023-06-04T08:51:21;96891.22;;;27.97;72.63
57763;BME280;43592;42.524;12.052;2023-06-04T08:53:46;96898.28;;;28.08;72.47
57763;BME280;43592;42.524;12.052;2023-06-04T08:56:15;96907.31;;;28.08;72.61
57763;BME280;43592;42.524;12.052;2023-06-04T08:58:42;96906.16;;;27.96;70.77
57763;BME280;43592;42.524;12.052;2023-06-04T09:01:08;96909.19;;;27.89;71.43
57763;BME280;43592;42.524;12.052;2023-06-04T09:03:35;96906.00;;;27.78;70.43
57763;BME280;43592;42.524;12.052;2023-06-04T09:06:02;96908.28;;;27.23;73.71
57763;BME280;43592;42.524;12.052;2023-06-04T09:08:31;96901.47;;;26.89;73.80
57763;BME280;43592;42.524;12.052;2023-06-04T09:10:57;96909.75;;;26.76;72.23
57763;BME280;43592;42.524;12.052;2023-06-04T09:13:24;96909.06;;;26.85;70.69
57763;BME280;43592;42.524;12.052;2023-06-04T09:16:03;96912.69;;;27.07;72.15
57763;BME280;43592;42.524;12.052;2023-06-04T09:18:29;96920.69;;;27.27;70.32
57763;BME280;43592;42.524;12.052;2023-06-04T09:21:07;96922.69;;;27.01;66.55
57763;BME280;43592;42.524;12.052;2023-06-04T09:23:45;96917.00;;;26.70;69.35
57763;BME280;43592;42.524;12.052;2023-06-04T09:26:11;96916.28;;;26.40;74.55
57763;BME280;43592;42.524;12.052;2023-06-04T09:28:44;96920.09;;;26.17;75.05
57763;BME280;43592;42.524;12.052;2023-06-04T09:31:13;96920.31;;;26.23;76.51
57763;BME280;43592;42.524;12.052;2023-06-04T09:33:46;96916.91;;;26.19;73.32
57763;BME280;43592;42.524;12.052;2023-06-04T09:36:11;96923.75;;;26.27;75.03
57763;BME280;43592;42.524;12.052;2023-06-04T09:38:38;96916.25;;;26.15;70.24
57763;BME280;43592;42.524;12.052;2023-06-04T09:41:04;96918.84;;;26.06;71.98
57763;BME280;43592;42.524;12.052;2023-06-04T09:43:32;96924.00;;;26.04;72.53
57763;BME280;43592;42.524;12.052;2023-06-04T09:46:10;96912.38;;;26.12;70.12
57763;BME280;43592;42.524;12.052;2023-06-04T09:48:36;96913.25;;;26.09;71.21
57763;BME280;43592;42.524;12.052;2023-06-04T09:51:08;96924.34;;;26.06;73.34
57763;BME280;43592;42.524;12.052;2023-06-04T09:53:34;96913.31;;;26.22;73.26
57763;BME280;43592;42.524;12.052;2023-06-04T09:56:01;96907.59;;;26.16;71.30
57763;BME280;43592;42.524;12.052;2023-06-04T09:58:29;96900.88;;;26.17;72.68
57763;BME280;43592;42.524;12.052;2023-06-04T10:00:55;96903.22;;;26.19;72.74
57763;BME280;43592;42.524;12.052;2023-06-04T10:03:23;96903.28;;;26.15;70.02
57763;BME280;43592;42.524;12.052;2023-06-04T10:05:53;96899.69;;;26.18;72.68
57763;BME280;43592;42.524;12.052;2023-06-04T10:08:24;96903.00;;;26.39;74.66
57763;BME280;43592;42.524;12.052;2023-06-04T10:10:55;96903.38;;;26.54;70.99
57763;BME280;43592;42.524;12.052;2023-06-04T10:13:22;96904.59;;;26.53;69.97
57763;BME280;43592;42.524;12.052;2023-06-04T10:15:48;96895.53;;;26.39;68.98
57763;BME280;43592;42.524;12.052;2023-06-04T10:18:15;96905.38;;;26.24;72.39
57763;BME280;43592;42.524;12.052;2023-06-04T10:20:41;96903.63;;;26.05;72.33
57763;BME280;43592;42.524;12.052;2023-06-04T10:23:07;96908.22;;;26.08;73.53
57763;BME280;43592;42.524;12.052;2023-06-04T10:25:36;96903.28;;;26.03;70.99
57763;BME280;43592;42.524;12.052;2023-06-04T10:28:03;96905.72;;;25.84;72.01
57763;BME280;43592;42.524;12.052;2023-06-04T10:30:29;96905.81;;;25.81;73.37
57763;BME280;43592;42.524;12.052;2023-06-04T10:32:55;96915.38;;;25.60;73.35
57763;BME280;43592;42.524;12.052;2023-06-04T10:35:31;96910.09;;;25.36;70.83
57763;BME280;43592;42.524;12.052;2023-06-04T10:38:10;96916.25;;;25.07;77.01
57763;BME280;43592;42.524;12.052;2023-06-04T10:40:37;96912.81;;;24.71;78.77
57763;BME280;43592;42.524;12.052;2023-06-04T10:45:31;96910.25;;;24.07;81.69
57763;BME280;43592;42.524;12.052;2023-06-04T10:48:00;96905.94;;;23.90;84.02
57763;BME280;43592;42.524;12.052;2023-06-04T10:50:26;96907.09;;;23.89;84.27
57763;BME280;43592;42.524;12.052;2023-06-04T10:52:52;96907.81;;;23.93;83.86
57763;BME280;43592;42.524;12.052;2023-06-04T10:55:18;96906.53;;;23.97;75.86
57763;BME280;43592;42.524;12.052;2023-06-04T11:00:18;96910.25;;;24.07;81.43
57763;BME280;43592;42.524;12.052;2023-06-04T11:03:17;96912.00;;;23.97;77.82
57763;BME280;43592;42.524;12.052;2023-06-04T11:05:39;96912.63;;;23.85;77.33
57763;BME280;43592;42.524;12.052;2023-06-04T11:08:05;96912.16;;;23.70;77.32
57763;BME280;43592;42.524;12.052;2023-06-04T11:10:33;96909.56;;;23.60;79.57
57763;BME280;43592;42.524;12.052;2023-06-04T11:12:59;96909.16;;;23.41;78.57
57763;BME280;43592;42.524;12.052;2023-06-04T11:15:25;96913.47;;;23.15;81.35
57763;BME280;43592;42.524;12.052;2023-06-04T11:17:51;96912.22;;;22.96;82.95
57763;BME280;43592;42.524;12.052;2023-06-04T11:20:17;96913.28;;;22.75;81.38
57763;BME280;43592;42.524;12.052;2023-06-04T11:22:49;96908.72;;;22.69;85.41
57763;BME280;43592;42.524;12.052;2023-06-04T11:25:16;96900.06;;;22.47;79.95
57763;BME280;43592;42.524;12.052;2023-06-04T11:27:42;96901.19;;;22.49;88.51
57763;BME280;43592;42.524;12.052;2023-06-04T11:30:08;96897.28;;;22.50;87.96
57763;BME280;43592;42.524;12.052;2023-06-04T11:32:33;96901.44;;;22.58;91.68
57763;BME280;43592;42.524;12.052;2023-06-04T11:35:02;96899.00;;;22.68;89.72
57763;BME280;43592;42.524;12.052;2023-06-04T11:37:29;96894.19;;;22.75;79.15
57763;BME280;43592;42.524;12.052;2023-06-04T11:39:57;96892.81;;;22.91;85.15
57763;BME280;43592;42.524;12.052;2023-06-04T11:42:23;96904.03;;;22.96;79.97
57763;BME280;43592;42.524;12.052;2023-06-04T11:44:49;96898.97;;;22.95;84.49
57763;BME280;43592;42.524;12.052;2023-06-04T11:47:20;96898.25;;;22.91;86.71
57763;BME280;43592;42.524;12.052;2023-06-04T11:49:46;96901.81;;;22.88;84.10
57763;BME280;43592;42.524;12.052;2023-06-04T11:52:12;96911.63;;;22.81;80.01
57763;BME280;43592;42.524;12.052;2023-06-04T11:54:38;96901.59;;;22.75;82.12
57763;BME280;43592;42.524;12.052;2023-06-04T11:57:05;96903.34;;;22.61;79.76
57763;BME280;43592;42.524;12.052;2023-06-04T11:59:31;96900.06;;;22.47;86.74
57763;BME280;43592;42.524;12.052;2023-06-04T12:01:56;96901.44;;;22.31;92.85
57763;BME280;43592;42.524;12.052;2023-06-04T12:04:22;96900.97;;;22.06;99.28
57763;BME280;43592;42.524;12.052;2023-06-04T12:06:57;96904.22;;;21.93;100.00
57763;BME280;43592;42.524;12.052;2023-06-04T12:09:24;96903.25;;;21.77;100.00
57763;BME280;43592;42.524;12.052;2023-06-04T12:12:02;96903.00;;;21.64;100.00
57763;BME280;43592;42.524;12.052;2023-06-04T12:14:31;96905.41;;;21.58;100.00
57763;BME280;43592;42.524;12.052;2023-06-04T12:16:57;96894.22;;;21.49;100.00
57763;BME280;43592;42.524;12.052;2023-06-04T12:19:23;96895.38;;;21.48;100.00
57763;BME280;43592;42.524;12.052;2023-06-04T12:22:04;96896.13;;;21.52;100.00
57763;BME280;43592;42.524;12.052;2023-06-04T12:24:32;96887.91;;;21.56;100.00
57763;BME280;43592;42.524;12.052;2023-06-04T12:27:04;96892.88;;;21.64;100.00
57763;BME280;43592;42.524;12.052;2023-06-04T12:29:31;96897.56;;;21.64;100.00
57763;BME280;43592;42.524;12.052;2023-06-04T12:32:06;96895.88;;;21.73;100.00
57763;BME280;43592;42.524;12.052;2023-06-04T12:34:40;96900.44;;;21.84;100.00
57763;BME280;43592;42.524;12.052;2023-06-04T12:37:06;96903.13;;;21.87;100.00
57763;BME280;43592;42.524;12.052;2023-06-04T12:39:33;96902.31;;;21.90;100.00
57763;BME280;43592;42.524;12.052;2023-06-04T12:41:58;96897.94;;;21.96;100.00
57763;BME280;43592;42.524;12.052;2023-06-04T12:44:24;96901.88;;;21.95;100.00
57763;BME280;43592;42.524;12.052;2023-06-04T12:46:50;96906.53;;;21.95;100.00